createdAt,value
2018-12-20T00:01:12.894Z,6.17
2018-12-20T00:04:20.495Z,6.33
2018-12-20T00:07:28.707Z,6.44
2018-12-20T00:10:36.600Z,6.40
2018-12-20T00:13:44.192Z,6.08
2018-12-20T00:17:10.520Z,6.30
2018-12-20T00:20:18.416Z,6.34
2018-12-20T00:23:38.770Z,6.22
2018-12-20T00:26:46.556Z,6.12
2018-12-20T00:29:54.225Z,6.28
2018-12-20T00:33:02.073Z,5.96
2018-12-20T00:36:09.792Z,5.99
2018-12-20T00:39:18.440Z,6.14
2018-12-20T00:42:25.991Z,6.16
2018-12-20T00:45:33.734Z,6.21
2018-12-20T00:48:42.119Z,6.27
2018-12-20T00:51:49.756Z,6.31
2018-12-20T00:54:57.903Z,6.27
2018-12-20T00:58:05.601Z,6.29
2018-12-20T01:01:27.766Z,6.38
2018-12-20T01:04:35.672Z,6.38
2018-12-20T01:07:43.268Z,6.34
2018-12-20T01:10:50.984Z,6.18
2018-12-20T01:13:59.029Z,6.27
2018-12-20T01:17:07.520Z,6.39
2018-12-20T01:20:15.639Z,6.17
2018-12-20T01:23:23.443Z,6.19
2018-12-20T01:26:31.039Z,6.25
2018-12-20T01:29:39.031Z,6.26
2018-12-20T01:32:46.965Z,6.16
2018-12-20T01:35:54.880Z,6.13
2018-12-20T01:39:03.592Z,6.14
2018-12-20T01:42:11.682Z,6.21
2018-12-20T01:45:19.586Z,6.14
2018-12-20T01:48:39.482Z,6.32
2018-12-20T01:51:47.457Z,6.10
2018-12-20T01:54:55.039Z,6.00
2018-12-20T01:58:03.218Z,5.98
2018-12-20T02:01:11.023Z,5.94
2018-12-20T02:04:18.984Z,5.86
2018-12-20T02:07:27.032Z,5.72
2018-12-20T02:10:35.154Z,5.86
2018-12-20T02:13:43.107Z,5.84
2018-12-20T02:16:51.170Z,5.93
2018-12-20T02:19:59.378Z,5.91
2018-12-20T02:23:07.389Z,5.85
2018-12-20T02:26:15.331Z,5.86
2018-12-20T02:29:23.639Z,5.94
2018-12-20T02:32:45.259Z,5.97
2018-12-20T02:35:53.115Z,5.88
2018-12-20T02:39:00.763Z,5.77
2018-12-20T02:42:08.861Z,5.96
2018-12-20T02:45:16.751Z,5.94
2018-12-20T02:48:24.713Z,5.81
2018-12-20T02:51:32.497Z,5.73
2018-12-20T02:54:40.343Z,5.82
2018-12-20T02:58:00.677Z,5.91
2018-12-20T03:01:08.974Z,5.90
2018-12-20T03:04:29.774Z,5.90
2018-12-20T03:07:50.256Z,5.63
2018-12-20T03:11:09.922Z,5.74
2018-12-20T03:14:17.813Z,5.43
2018-12-20T03:17:25.748Z,5.58
2018-12-20T03:20:34.088Z,5.49
2018-12-20T03:23:41.903Z,5.58
2018-12-20T03:26:49.728Z,5.59
2018-12-20T03:29:58.073Z,5.66
2018-12-20T03:33:05.805Z,5.44
2018-12-20T03:36:26.536Z,5.64
2018-12-20T03:39:46.535Z,5.48
2018-12-20T03:42:54.576Z,5.41
2018-12-20T03:46:14.843Z,5.46
2018-12-20T03:49:22.685Z,5.50
2018-12-20T03:52:31.388Z,5.57
2018-12-20T03:55:39.811Z,5.45
2018-12-20T03:58:47.643Z,5.29
2018-12-20T04:01:55.419Z,5.22
2018-12-20T04:05:03.785Z,5.38
2018-12-20T04:08:11.740Z,5.30
2018-12-20T04:11:19.534Z,5.46
2018-12-20T04:14:27.413Z,5.55
2018-12-20T04:17:35.496Z,5.63
2018-12-20T04:20:43.112Z,5.65
2018-12-20T04:24:02.303Z,5.73
2018-12-20T04:27:09.995Z,5.39
2018-12-20T04:30:17.588Z,5.43
2018-12-20T04:33:25.428Z,5.53
2018-12-20T04:36:33.324Z,5.62
2018-12-20T04:39:41.204Z,5.61
2018-12-20T04:43:01.189Z,5.56
2018-12-20T04:46:20.515Z,5.52
2018-12-20T04:49:29.587Z,5.68
2018-12-20T04:52:37.725Z,5.54
2018-12-20T04:55:57.870Z,5.46
2018-12-20T04:59:06.390Z,5.58
2018-12-20T05:02:14.451Z,5.55
2018-12-20T05:05:22.265Z,5.60
2018-12-20T05:08:30.124Z,5.65
2018-12-20T05:11:38.517Z,5.70
2018-12-20T05:14:46.687Z,5.57
2018-12-20T05:17:54.752Z,5.63
2018-12-20T05:21:02.517Z,5.56
2018-12-20T05:24:10.378Z,5.68
2018-12-20T05:27:18.211Z,5.64
2018-12-20T05:30:26.100Z,5.68
2018-12-20T05:33:33.863Z,5.60
2018-12-20T05:36:41.833Z,5.48
2018-12-20T05:39:49.535Z,5.65
2018-12-20T05:42:57.621Z,5.46
2018-12-20T05:46:06.304Z,5.47
2018-12-20T05:49:14.941Z,5.55
2018-12-20T05:52:22.856Z,5.66
2018-12-20T05:55:43.010Z,5.73
2018-12-20T05:59:03.661Z,5.71
2018-12-20T06:02:11.600Z,5.63
2018-12-20T06:05:31.875Z,5.64
2018-12-20T06:08:39.775Z,5.66
2018-12-20T06:11:47.291Z,5.70
2018-12-20T06:14:54.884Z,5.75
2018-12-20T06:18:14.996Z,5.67
2018-12-20T06:21:22.500Z,5.66
2018-12-20T06:24:30.375Z,5.82
2018-12-20T06:27:37.885Z,5.78
2018-12-20T06:30:57.771Z,5.90
2018-12-20T06:34:05.710Z,5.78
2018-12-20T06:37:13.599Z,5.77
2018-12-20T06:40:21.383Z,5.84
2018-12-20T06:43:29.072Z,5.92
2018-12-20T06:46:38.769Z,5.81
2018-12-20T06:49:46.320Z,5.86
2018-12-20T06:52:53.843Z,5.88
2018-12-20T06:56:01.450Z,5.86
2018-12-20T06:59:20.791Z,5.76
2018-12-20T07:02:28.337Z,5.92
2018-12-20T07:05:36.017Z,5.85
2018-12-20T07:08:43.639Z,5.81
2018-12-20T07:11:51.272Z,5.83
2018-12-20T07:14:59.067Z,5.80
2018-12-20T07:18:06.813Z,5.80
2018-12-20T07:21:14.324Z,5.83
2018-12-20T07:24:34.741Z,5.87
2018-12-20T07:27:54.347Z,5.70
2018-12-20T07:31:14.406Z,5.70
2018-12-20T07:34:36.369Z,5.87
2018-12-20T07:37:56.546Z,5.85
2018-12-20T07:41:17.985Z,5.92
2018-12-20T07:44:25.630Z,5.65
2018-12-20T07:47:33.348Z,5.61
2018-12-20T07:50:40.916Z,5.38
2018-12-20T07:54:01.962Z,5.56
2018-12-20T07:57:09.961Z,5.55
2018-12-20T08:00:34.385Z,5.69
2018-12-20T08:03:41.962Z,5.42
2018-12-20T08:06:49.527Z,5.59
2018-12-20T08:09:57.152Z,5.61
2018-12-20T08:13:04.754Z,5.64
2018-12-20T08:16:12.388Z,5.75
2018-12-20T08:19:20.013Z,5.83
2018-12-20T08:22:27.640Z,5.72
2018-12-20T08:25:47.867Z,5.89
2018-12-20T08:28:55.556Z,5.84
2018-12-20T08:32:03.159Z,5.87
2018-12-20T08:35:10.762Z,5.74
2018-12-20T08:38:32.081Z,5.96
2018-12-20T08:41:39.865Z,5.86
2018-12-20T08:44:47.479Z,5.91
2018-12-20T08:47:55.142Z,6.02
2018-12-20T08:51:15.705Z,6.02
2018-12-20T08:54:23.215Z,6.12
2018-12-20T08:57:30.751Z,6.24
2018-12-20T09:00:38.376Z,6.28
2018-12-20T09:03:58.259Z,6.08
2018-12-20T09:07:17.713Z,5.96
2018-12-20T09:10:38.358Z,6.16
2018-12-20T09:13:45.967Z,6.34
2018-12-20T09:16:53.451Z,6.48
2018-12-20T09:20:01.032Z,6.32
2018-12-20T09:23:21.819Z,5.99
2018-12-20T09:26:29.444Z,6.15
2018-12-20T09:29:37.060Z,6.26
2018-12-20T09:32:46.187Z,6.05
2018-12-20T09:35:53.776Z,6.33
2018-12-20T09:39:15.321Z,6.35
2018-12-20T09:42:22.876Z,6.47
2018-12-20T09:45:30.492Z,6.55
2018-12-20T09:48:38.084Z,6.50
2018-12-20T09:51:59.727Z,6.55
2018-12-20T09:55:21.359Z,6.60
2018-12-20T09:58:29.271Z,6.47
2018-12-20T10:01:36.809Z,6.53
2018-12-20T10:04:58.247Z,6.52
2018-12-20T10:08:06.168Z,6.65
2018-12-20T10:11:13.717Z,6.60
2018-12-20T10:14:21.272Z,6.66
2018-12-20T10:17:48.341Z,6.75
2018-12-20T10:21:15.724Z,6.69
2018-12-20T10:24:23.571Z,6.56
2018-12-20T10:27:31.760Z,6.47
2018-12-20T10:30:39.731Z,6.57
2018-12-20T10:33:47.313Z,6.72
2018-12-20T10:37:14.488Z,6.73
2018-12-20T10:40:37.971Z,6.74
2018-12-20T10:43:46.098Z,6.65
2018-12-20T10:46:55.724Z,6.71
2018-12-20T10:50:03.613Z,6.93
2018-12-20T10:53:11.241Z,6.77
2018-12-20T10:56:19.346Z,7.05
2018-12-20T10:59:26.921Z,7.30
2018-12-20T11:02:39.562Z,7.32
2018-12-20T11:06:07.088Z,7.44
2018-12-20T11:09:20.796Z,7.23
2018-12-20T11:12:48.907Z,7.16
2018-12-20T11:15:56.420Z,7.20
2018-12-20T11:19:15.795Z,7.14
2018-12-20T11:22:44.001Z,7.17
2018-12-20T11:25:51.580Z,7.24
2018-12-20T11:28:59.324Z,7.24
2018-12-20T11:32:06.891Z,7.21
2018-12-20T11:35:26.468Z,7.28
2018-12-20T11:38:34.079Z,7.23
2018-12-20T11:41:41.667Z,7.43
2018-12-20T11:44:49.987Z,7.38
2018-12-20T11:47:57.583Z,7.42
2018-12-20T11:51:05.159Z,7.44
2018-12-20T11:54:12.684Z,7.36
2018-12-20T11:57:36.667Z,7.42
2018-12-20T12:00:58.519Z,7.31
2018-12-20T12:04:17.359Z,7.25
2018-12-20T12:07:36.859Z,7.32
2018-12-20T12:10:44.335Z,7.35
2018-12-20T12:13:51.992Z,7.28
2018-12-20T12:16:59.614Z,7.35
2018-12-20T12:20:08.619Z,7.38
2018-12-20T12:23:16.168Z,7.30
2018-12-20T12:26:23.749Z,7.36
2018-12-20T12:29:47.858Z,7.20
2018-12-20T12:33:10.977Z,7.15
2018-12-20T12:36:18.592Z,7.36
2018-12-20T12:39:26.120Z,7.43
2018-12-20T12:42:46.104Z,7.23
2018-12-20T12:45:54.393Z,7.35
2018-12-20T12:49:02.087Z,7.42
2018-12-20T12:52:09.619Z,7.23
2018-12-20T12:55:17.200Z,7.20
2018-12-20T12:58:25.252Z,6.99
2018-12-20T13:01:33.548Z,7.17
2018-12-20T13:04:41.133Z,7.41
2018-12-20T13:07:48.683Z,7.30
2018-12-20T13:10:58.324Z,7.22
2018-12-20T13:14:18.999Z,7.36
2018-12-20T13:17:38.296Z,7.45
2018-12-20T13:20:45.860Z,7.57
2018-12-20T13:23:53.494Z,7.54
2018-12-20T13:27:01.056Z,7.34
2018-12-20T13:30:20.649Z,7.35
2018-12-20T13:33:40.840Z,7.39
2018-12-20T13:36:48.428Z,7.54
2018-12-20T13:39:56.056Z,7.63
2018-12-20T13:43:04.436Z,7.47
2018-12-20T13:46:13.144Z,7.59
2018-12-20T13:49:20.810Z,7.71
2018-12-20T13:52:28.385Z,7.65
2018-12-20T13:55:35.972Z,7.69
2018-12-20T13:58:43.588Z,7.67
2018-12-20T14:01:51.203Z,7.67
2018-12-20T14:04:58.782Z,7.61
2018-12-20T14:08:05.845Z,7.52
2018-12-20T14:11:13.455Z,7.54
2018-12-20T14:14:32.600Z,7.49
2018-12-20T14:20:57.982Z,7.64
2018-12-20T14:27:25.595Z,7.42
2018-12-20T14:30:33.243Z,7.64
2018-12-20T14:33:40.836Z,7.70
2018-12-20T14:36:48.862Z,7.65
2018-12-20T14:39:56.497Z,7.56
2018-12-20T14:43:04.039Z,7.70
2018-12-20T14:46:11.987Z,7.66
2018-12-20T14:49:19.865Z,7.58
2018-12-20T14:52:27.372Z,7.64
2018-12-20T14:55:35.479Z,7.77
2018-12-20T14:58:44.128Z,7.62
2018-12-20T15:01:51.705Z,7.61
2018-12-20T15:04:59.706Z,7.65
2018-12-20T15:08:18.787Z,7.54
2018-12-20T15:11:27.106Z,7.65
2018-12-20T15:14:35.140Z,7.61
2018-12-20T15:17:42.709Z,7.56
2018-12-20T15:20:50.499Z,7.63
2018-12-20T15:23:58.810Z,7.59
2018-12-20T15:27:19.658Z,7.45
2018-12-20T15:30:27.136Z,7.47
2018-12-20T15:33:34.834Z,7.59
2018-12-20T15:36:42.944Z,7.51
2018-12-20T15:39:50.645Z,7.55
2018-12-20T15:42:59.024Z,7.48
2018-12-20T15:46:07.264Z,7.44
2018-12-20T15:49:26.399Z,7.29
2018-12-20T15:52:33.958Z,7.34
2018-12-20T15:55:41.802Z,7.39
2018-12-20T15:59:01.345Z,7.56
2018-12-20T16:02:09.148Z,7.71
2018-12-20T16:05:16.724Z,7.68
2018-12-20T16:08:38.348Z,7.58
2018-12-20T16:11:47.099Z,7.57
2018-12-20T16:14:54.926Z,7.45
2018-12-20T16:18:02.532Z,7.30
2018-12-20T16:21:21.343Z,7.56
2018-12-20T16:24:40.124Z,7.52
2018-12-20T16:27:47.754Z,7.48
2018-12-20T16:30:55.424Z,7.55
2018-12-20T16:34:03.021Z,7.38
2018-12-20T16:37:23.848Z,7.63
2018-12-20T16:40:31.404Z,7.54
2018-12-20T16:43:39.105Z,7.49
2018-12-20T16:46:47.013Z,7.63
2018-12-20T16:49:54.632Z,7.59
2018-12-20T16:53:02.237Z,7.57
2018-12-20T16:59:31.980Z,7.74
2018-12-20T17:02:50.268Z,7.65
2018-12-20T17:06:09.905Z,7.58
2018-12-20T17:09:17.465Z,7.59
2018-12-20T17:15:43.176Z,7.66
2018-12-20T17:19:01.568Z,7.56
2018-12-20T17:22:21.307Z,7.60
2018-12-20T17:25:40.819Z,7.52
2018-12-20T17:29:00.228Z,7.69
2018-12-20T17:32:07.816Z,7.59
2018-12-20T17:35:15.323Z,7.53
2018-12-20T17:38:23.270Z,7.36
2018-12-20T17:41:42.715Z,7.41
2018-12-20T17:45:00.764Z,7.25
2018-12-20T17:48:19.178Z,7.17
2018-12-20T17:51:38.017Z,7.17
2018-12-20T17:54:57.392Z,7.28
2018-12-20T17:58:14.959Z,7.27
2018-12-20T18:01:34.987Z,7.35
2018-12-20T18:04:42.605Z,7.28
2018-12-20T18:11:07.570Z,7.27
2018-12-20T18:14:26.786Z,7.24
2018-12-20T18:17:46.177Z,7.21
2018-12-20T18:21:08.655Z,7.21
2018-12-20T18:24:29.485Z,7.13
2018-12-20T18:27:48.371Z,7.18
2018-12-20T18:31:08.693Z,7.36
2018-12-20T18:34:16.956Z,7.28
2018-12-20T18:40:42.213Z,7.09
2018-12-20T18:43:49.889Z,7.12
2018-12-20T18:50:15.233Z,7.24
2018-12-20T18:53:22.777Z,7.26
2018-12-20T18:59:49.861Z,7.43
2018-12-20T19:02:57.341Z,7.29
2018-12-20T19:06:05.270Z,7.26
2018-12-20T19:09:12.862Z,7.35
2018-12-20T19:15:39.875Z,7.33
2018-12-20T19:18:47.456Z,7.44
2018-12-20T19:21:54.997Z,7.23
2018-12-20T19:25:02.475Z,7.19
2018-12-20T19:28:10.094Z,7.31
2018-12-20T19:31:32.839Z,7.31
2018-12-20T19:34:55.212Z,7.25
2018-12-20T19:38:22.263Z,7.26
2018-12-20T19:41:29.813Z,7.00
2018-12-20T19:44:37.652Z,7.10
2018-12-20T19:47:45.251Z,7.15
2018-12-20T19:50:52.732Z,7.12
2018-12-20T19:54:00.284Z,7.03
2018-12-20T19:57:07.788Z,6.93
2018-12-20T20:00:31.300Z,7.03
2018-12-20T20:03:53.968Z,6.95
2018-12-20T20:07:17.444Z,6.81
2018-12-20T20:10:24.986Z,6.85
2018-12-20T20:13:32.540Z,6.79
2018-12-20T20:16:41.039Z,6.87
2018-12-20T20:19:48.658Z,6.95
2018-12-20T20:22:56.152Z,7.04
2018-12-20T20:26:04.151Z,6.98
2018-12-20T20:29:11.988Z,7.07
2018-12-20T20:32:19.568Z,7.18
2018-12-20T20:35:42.413Z,7.27
2018-12-20T20:39:04.505Z,7.40
2018-12-20T20:42:38.064Z,7.45
2018-12-20T20:45:57.815Z,7.53
2018-12-20T20:49:20.713Z,7.67
2018-12-20T20:52:28.349Z,7.70
2018-12-20T20:55:35.904Z,7.68
2018-12-20T20:58:43.524Z,7.52
2018-12-20T21:02:06.212Z,7.59
2018-12-20T21:05:16.723Z,7.55
2018-12-20T21:08:24.304Z,7.54
2018-12-20T21:11:47.015Z,7.49
2018-12-20T21:15:09.511Z,7.47
2018-12-20T21:18:32.386Z,7.43
2018-12-20T21:21:55.066Z,7.36
2018-12-20T21:25:18.482Z,7.11
2018-12-20T21:28:40.800Z,7.27
2018-12-20T21:31:48.331Z,7.34
2018-12-20T21:34:55.851Z,7.27
2018-12-20T21:38:03.775Z,7.35
2018-12-20T21:41:26.655Z,7.44
2018-12-20T21:44:49.272Z,7.57
2018-12-20T21:48:12.840Z,7.36
2018-12-20T21:51:21.035Z,7.20
2018-12-20T21:54:28.516Z,7.30
2018-12-20T21:57:51.080Z,7.36
2018-12-20T22:01:12.733Z,7.52
2018-12-20T22:04:33.859Z,7.37
2018-12-20T22:07:41.423Z,7.58
2018-12-20T22:10:48.945Z,7.52
2018-12-20T22:13:56.540Z,7.60
2018-12-20T22:17:04.381Z,7.70
2018-12-20T22:20:11.935Z,7.75
2018-12-20T22:23:19.432Z,7.68
2018-12-20T22:26:26.899Z,7.78
2018-12-20T22:29:34.482Z,7.69
2018-12-20T22:32:55.328Z,7.87
2018-12-20T22:36:14.713Z,7.91
2018-12-20T22:39:36.363Z,7.90
2018-12-20T22:42:58.900Z,7.95
2018-12-20T22:46:21.500Z,7.92
2018-12-20T22:49:42.259Z,7.99
2018-12-20T22:52:49.836Z,7.94
2018-12-20T22:55:57.457Z,7.96
2018-12-20T22:59:05.453Z,7.92
2018-12-20T23:02:18.074Z,7.85
2018-12-20T23:05:22.542Z,7.68
2018-12-20T23:08:30.512Z,7.70
2018-12-20T23:11:38.024Z,7.68
2018-12-20T23:14:45.611Z,7.66
2018-12-20T23:17:53.135Z,7.74
2018-12-20T23:21:13.748Z,7.63
2018-12-20T23:24:37.107Z,7.79
2018-12-20T23:27:59.304Z,7.89
2018-12-20T23:31:20.697Z,7.84
2018-12-20T23:34:42.048Z,7.85
2018-12-20T23:38:06.692Z,7.84
2018-12-20T23:41:14.268Z,7.74
2018-12-20T23:44:22.755Z,7.75
2018-12-20T23:47:30.386Z,7.67
2018-12-20T23:50:37.979Z,7.69
2018-12-20T23:54:00.724Z,7.56
2018-12-20T23:57:21.235Z,7.67
